Time;durP1;ratioP1;P1;durP2;ratioP2;P2;SDS_P1;SDS_P2;PMS_P1;PMS_P2;Temp;Humidity;BMP_temperature;BMP_pressure;BME280_temperature;BME280_humidity;BME280_pressure;Samples;Min_cycle;Max_cycle;Signal;HPM_P1;HPM_P2
2021/05/09 04:00:28;;;;;;;4.07;3.80;;;11.10;99.90;;;;;;6019075;23;20387;31
2021/05/09 04:02:56;;;;;;;3.67;3.37;;;11.10;99.90;;;;;;4898228;29;20365;-67
2021/05/09 04:05:22;;;;;;;3.87;3.67;;;11.10;99.90;;;;;;4899541;29;20536;-67
2021/05/09 04:07:48;;;;;;;3.80;3.60;;;11.20;99.90;;;;;;4899646;29;20458;-66
2021/05/09 04:10:14;;;;;;;3.90;3.70;;;11.10;99.90;;;;;;4902137;29;20462;-67
2021/05/09 04:12:41;;;;;;;3.50;3.20;;;11.20;99.90;;;;;;4902142;29;20979;-66
2021/05/09 04:15:08;;;;;;;4.07;3.67;;;11.20;99.90;;;;;;4902585;29;20529;-66
2021/05/09 04:17:34;;;;;;;3.97;3.67;;;11.20;99.90;;;;;;4899627;29;20462;-67
2021/05/09 04:20:02;;;;;;;4.37;4.00;;;11.20;99.90;;;;;;4899372;29;20561;-66
2021/05/09 04:22:28;;;;;;;3.97;3.73;;;11.20;99.90;;;;;;4899255;29;20525;-66
2021/05/09 04:24:54;;;;;;;3.77;3.50;;;11.20;99.90;;;;;;4899285;29;20465;-66
2021/05/09 04:27:20;;;;;;;4.43;4.13;;;11.30;99.90;;;;;;4899412;29;20949;-66
2021/05/09 04:29:46;;;;;;;3.70;3.40;;;11.30;99.90;;;;;;4899475;29;20499;-65
2021/05/09 04:32:12;;;;;;;3.63;3.30;;;11.30;99.90;;;;;;4898912;29;20479;-66
2021/05/09 04:34:39;;;;;;;4.17;3.77;;;11.30;99.90;;;;;;4899478;29;20462;-66
2021/05/09 04:37:06;;;;;;;4.13;3.90;;;11.40;99.90;;;;;;4899568;29;20483;-67
2021/05/09 04:39:32;;;;;;;3.97;3.67;;;11.40;99.90;;;;;;4902718;29;20469;-66
2021/05/09 04:41:58;;;;;;;4.10;3.90;;;11.50;99.90;;;;;;4900940;29;20482;-67
2021/05/09 04:44:24;;;;;;;3.83;3.53;;;11.50;99.90;;;;;;4899601;29;20462;-66
2021/05/09 04:46:50;;;;;;;4.60;4.17;;;11.60;99.90;;;;;;4901150;29;20473;-66
2021/05/09 04:49:17;;;;;;;3.90;3.70;;;11.60;99.90;;;;;;4902915;29;20462;-66
2021/05/09 04:51:43;;;;;;;4.10;3.70;;;11.70;99.90;;;;;;4903172;29;20481;-66
2021/05/09 04:54:10;;;;;;;3.67;3.47;;;11.70;99.90;;;;;;4906568;29;20458;-66
2021/05/09 04:56:36;;;;;;;3.90;3.60;;;11.80;99.90;;;;;;4908303;29;20461;-66
2021/05/09 04:59:02;;;;;;;4.87;4.53;;;11.80;99.90;;;;;;4905144;29;20458;-67
2021/05/09 05:01:29;;;;;;;8.30;4.23;;;11.80;99.90;;;;;;4905909;29;20494;-67
2021/05/09 05:03:55;;;;;;;3.50;3.30;;;11.90;99.90;;;;;;4907654;29;20462;-67
2021/05/09 05:06:21;;;;;;;3.60;3.40;;;12.00;99.90;;;;;;4903300;29;20465;-66
2021/05/09 05:08:47;;;;;;;3.30;3.10;;;12.20;99.90;;;;;;4905430;29;20804;-67
2021/05/09 05:11:14;;;;;;;3.80;3.50;;;12.30;99.90;;;;;;4903156;29;20478;-67
2021/05/09 05:13:41;;;;;;;3.97;3.53;;;12.30;99.90;;;;;;4902276;29;20553;-66
2021/05/09 05:16:08;;;;;;;4.10;3.77;;;12.30;99.90;;;;;;4902862;29;20458;-66
2021/05/09 05:18:35;;;;;;;4.80;3.97;;;12.30;99.90;;;;;;4903411;29;20462;-66
2021/05/09 05:21:03;;;;;;;3.40;3.20;;;12.40;99.90;;;;;;4917724;29;20490;-66
2021/05/09 05:23:30;;;;;;;3.77;3.50;;;12.40;99.90;;;;;;4918707;29;20481;-66
2021/05/09 05:25:57;;;;;;;3.70;3.40;;;12.60;99.90;;;;;;4907806;29;20463;-66
2021/05/09 05:28:24;;;;;;;2.80;2.67;;;12.80;99.90;;;;;;4903929;29;20462;-65
2021/05/09 05:30:51;;;;;;;2.80;2.60;;;13.00;99.90;;;;;;4915826;29;20866;-66
2021/05/09 05:33:26;;;;;;;3.40;3.10;;;13.30;99.90;;;;;;4902938;29;20465;-65
2021/05/09 05:35:52;;;;;;;2.70;2.60;;;13.70;99.90;;;;;;4902697;29;20453;-66
2021/05/09 05:38:19;;;;;;;2.77;2.57;;;14.10;99.90;;;;;;4902029;29;20976;-65
2021/05/09 05:40:45;;;;;;;3.47;3.27;;;14.30;99.90;;;;;;4902306;29;20493;-66
2021/05/09 05:43:11;;;;;;;3.80;3.60;;;14.50;99.90;;;;;;4902570;29;20546;-66
2021/05/09 05:45:39;;;;;;;3.23;2.93;;;14.40;99.90;;;;;;4901912;29;20946;-66
2021/05/09 05:48:05;;;;;;;3.40;3.20;;;14.40;99.90;;;;;;4901938;29;20584;-66
2021/05/09 05:50:32;;;;;;;4.60;3.10;;;14.30;99.90;;;;;;4902070;29;20470;-66
2021/05/09 05:52:58;;;;;;;3.73;3.27;;;14.30;99.90;;;;;;4901868;29;20964;-66
2021/05/09 05:55:24;;;;;;;3.50;3.20;;;14.20;99.90;;;;;;4901831;29;20465;-65
2021/05/09 05:57:50;;;;;;;3.47;3.27;;;14.20;99.90;;;;;;4902842;29;20517;-71
2021/05/09 06:00:18;;;;;;;3.80;3.47;;;14.20;99.90;;;;;;4901620;29;20860;-65
2021/05/09 06:02:45;;;;;;;3.70;3.50;;;14.10;99.90;;;;;;4901668;29;20447;-67
2021/05/09 06:05:13;;;;;;;6.30;3.07;;;14.30;99.90;;;;;;4901713;29;20459;-66
2021/05/09 06:07:39;;;;;;;4.13;3.90;;;14.50;99.90;;;;;;4901353;29;20458;-67
2021/05/09 06:10:06;;;;;;;3.50;3.30;;;14.80;99.90;;;;;;4901874;29;20462;-66
2021/05/09 06:12:32;;;;;;;2.23;2.13;;;15.20;99.90;;;;;;4902476;29;21004;-66
2021/05/09 06:14:58;;;;;;;3.50;2.90;;;15.60;99.90;;;;;;4903062;29;20458;-67
2021/05/09 06:17:24;;;;;;;3.10;2.90;;;16.10;99.90;;;;;;4901662;29;20462;-67
2021/05/09 06:19:51;;;;;;;2.93;2.80;;;16.50;99.90;;;;;;4901838;29;20473;-66
2021/05/09 06:22:18;;;;;;;4.80;2.90;;;16.80;99.90;;;;;;4901488;29;20847;-66
2021/05/09 06:24:44;;;;;;;3.13;2.50;;;17.10;99.90;;;;;;4901250;29;20466;-66
2021/05/09 06:27:10;;;;;;;2.43;2.23;;;17.50;99.90;;;;;;4901044;29;20518;-66
2021/05/09 06:29:36;;;;;;;2.30;2.20;;;18.00;99.90;;;;;;4901620;29;20458;-66
2021/05/09 06:32:02;;;;;;;2.00;1.90;;;18.60;99.90;;;;;;4900762;29;20563;-66
2021/05/09 06:34:29;;;;;;;2.07;1.97;;;19.10;99.90;;;;;;4901104;29;20469;-66
2021/05/09 06:36:56;;;;;;;2.40;2.20;;;19.40;99.90;;;;;;4905093;29;20454;-65
2021/05/09 06:39:26;;;;;;;2.77;2.50;;;19.70;99.90;;;;;;4900595;29;20453;-65
2021/05/09 06:41:55;;;;;;;2.57;2.37;;;19.80;99.70;;;;;;4900576;29;20486;-65
2021/05/09 06:44:22;;;;;;;2.60;2.50;;;19.80;97.90;;;;;;4900618;29;20465;-65
2021/05/09 06:46:48;;;;;;;2.20;2.10;;;20.20;98.40;;;;;;4900317;29;20454;-65
2021/05/09 06:49:15;;;;;;;2.30;2.20;;;20.70;97.00;;;;;;4900455;29;20454;-66
2021/05/09 06:51:41;;;;;;;3.10;2.30;;;21.00;96.10;;;;;;4901887;29;20996;-66
2021/05/09 06:54:08;;;;;;;2.17;2.00;;;21.20;93.70;;;;;;4903398;29;20537;-65
2021/05/09 06:56:36;;;;;;;2.20;2.10;;;21.40;93.20;;;;;;4901183;29;20462;-65
2021/05/09 06:59:03;;;;;;;2.30;2.20;;;21.60;93.90;;;;;;4903679;29;20443;-65
2021/05/09 07:01:30;;;;;;;2.83;2.50;;;21.90;93.60;;;;;;4914584;29;20514;-65
2021/05/09 07:03:56;;;;;;;3.80;1.67;;;22.50;91.90;;;;;;4903764;29;20458;-64
2021/05/09 07:06:22;;;;;;;2.67;1.83;;;23.20;91.70;;;;;;4901110;29;20918;-64
2021/05/09 07:08:48;;;;;;;2.30;1.87;;;23.60;87.50;;;;;;4900123;29;20447;-65
2021/05/09 07:11:15;;;;;;;2.10;1.90;;;23.90;87.00;;;;;;4901190;29;20487;-64
2021/05/09 07:13:42;;;;;;;2.37;2.17;;;24.20;87.30;;;;;;4901514;29;20458;-64
2021/05/09 07:16:08;;;;;;;2.40;2.30;;;24.80;80.90;;;;;;4900709;29;20466;-65
2021/05/09 07:18:36;;;;;;;3.03;2.20;;;24.90;77.90;;;;;;4903166;29;20609;-64
2021/05/09 07:21:10;;;;;;;1.90;1.80;;;25.00;76.80;;;;;;4900558;29;20492;-64
2021/05/09 07:23:38;;;;;;;1.80;1.70;;;25.10;74.40;;;;;;4900654;29;20518;-66
2021/05/09 07:26:04;;;;;;;2.40;2.03;;;25.50;73.90;;;;;;4900376;29;20458;-66
2021/05/09 07:28:31;;;;;;;3.13;2.93;;;25.90;71.80;;;;;;4901900;29;20968;-64
2021/05/09 07:30:57;;;;;;;2.23;2.03;;;26.10;71.00;;;;;;4900912;29;20474;-66
2021/05/09 07:33:23;;;;;;;2.53;2.03;;;26.20;71.20;;;;;;4900405;29;20458;-66
2021/05/09 07:35:49;;;;;;;2.90;2.10;;;26.60;69.30;;;;;;4899821;29;20945;-66
2021/05/09 07:38:16;;;;;;;1.60;1.50;;;26.80;68.40;;;;;;4899799;29;20927;-66
2021/05/09 07:40:42;;;;;;;2.10;1.47;;;27.10;66.30;;;;;;4901145;29;20494;-66
2021/05/09 07:43:08;;;;;;;1.47;1.47;;;27.40;65.80;;;;;;4907864;29;20466;-67
2021/05/09 07:45:35;;;;;;;3.43;2.00;;;28.00;64.90;;;;;;4903219;29;20927;-67
2021/05/09 07:48:02;;;;;;;5.97;1.70;;;28.30;65.50;;;;;;4913070;29;20532;-66
2021/05/09 07:50:28;;;;;;;1.50;1.50;;;28.90;59.90;;;;;;4911626;29;20474;-67
2021/05/09 07:52:58;;;;;;;1.53;1.47;;;28.90;58.30;;;;;;4907637;29;20455;-66
2021/05/09 07:55:24;;;;;;;1.83;1.70;;;28.90;58.90;;;;;;4901492;29;20941;-66
2021/05/09 07:57:51;;;;;;;1.70;1.60;;;29.10;57.30;;;;;;4900468;29;20462;-66
2021/05/09 08:00:20;;;;;;;1.90;1.80;;;28.90;56.50;;;;;;4899898;29;20481;-66
2021/05/09 08:02:49;;;;;;;1.77;1.67;;;28.90;56.70;;;;;;4900128;29;20453;-65
2021/05/09 08:05:16;;;;;;;1.47;1.37;;;28.90;56.10;;;;;;4900013;29;20461;-66
2021/05/09 08:07:50;;;;;;;1.37;1.30;;;28.70;56.60;;;;;;4899781;29;20462;-66
2021/05/09 08:10:16;;;;;;;1.50;1.50;;;28.90;57.10;;;;;;4903257;29;20587;-66
2021/05/09 08:12:42;;;;;;;1.27;1.27;;;28.90;55.90;;;;;;4899713;29;20461;-64
2021/05/09 08:15:10;;;;;;;1.83;1.70;;;28.90;56.30;;;;;;4900963;29;20462;-65
2021/05/09 08:17:36;;;;;;;2.53;1.27;;;29.20;56.10;;;;;;4900017;29;20446;-64
2021/05/09 08:20:04;;;;;;;1.60;1.50;;;29.70;55.50;;;;;;4904832;29;20482;-64
2021/05/09 08:22:30;;;;;;;1.33;1.33;;;30.00;54.40;;;;;;4918805;29;20489;-63
2021/05/09 08:24:57;;;;;;;1.33;1.33;;;30.20;53.60;;;;;;4920534;29;20441;-64
2021/05/09 08:27:23;;;;;;;1.30;1.20;;;30.40;51.70;;;;;;4910654;29;20458;-66
2021/05/09 08:29:49;;;;;;;1.40;1.30;;;30.20;51.50;;;;;;4906894;29;20485;-64
2021/05/09 08:32:16;;;;;;;2.30;2.20;;;30.10;52.50;;;;;;4911644;29;20478;-64
2021/05/09 08:34:42;;;;;;;1.50;1.40;;;30.00;52.20;;;;;;4913354;29;20454;-65
2021/05/09 08:37:09;;;;;;;1.60;1.50;;;30.20;51.40;;;;;;4903437;29;20949;-64
2021/05/09 08:39:36;;;;;;;1.63;1.53;;;30.10;51.70;;;;;;4904298;29;20518;-63
2021/05/09 08:42:03;;;;;;;1.80;1.70;;;30.10;50.90;;;;;;4903399;29;20490;-63
2021/05/09 08:44:33;;;;;;;1.80;1.70;;;30.40;51.10;;;;;;4902906;29;20469;-63
2021/05/09 08:47:00;;;;;;;1.40;1.40;;;30.70;50.70;;;;;;4903058;29;20462;-64
2021/05/09 08:49:29;;;;;;;3.93;1.70;;;30.80;49.90;;;;;;4903181;29;20466;-64
2021/05/09 08:51:55;;;;;;;1.47;1.47;;;30.70;50.20;;;;;;4903098;29;20481;-63
2021/05/09 08:54:22;;;;;;;2.37;1.53;;;30.70;50.30;;;;;;4903419;29;20826;-63
2021/05/09 08:56:48;;;;;;;1.87;1.43;;;30.50;50.40;;;;;;4902628;29;20458;-64
2021/05/09 08:59:15;;;;;;;1.50;1.40;;;30.70;50.90;;;;;;4903374;29;20466;-64
2021/05/09 09:01:42;;;;;;;1.33;1.33;;;31.30;50.70;;;;;;4902771;29;20504;-64
2021/05/09 09:04:13;;;;;;;1.57;1.43;;;31.90;49.30;;;;;;4903121;29;20453;-65
2021/05/09 09:06:39;;;;;;;1.50;1.50;;;32.30;48.70;;;;;;4902750;29;20982;-65
2021/05/09 09:09:06;;;;;;;1.50;1.40;;;32.10;48.50;;;;;;4902532;29;20494;-65
2021/05/09 09:11:33;;;;;;;1.70;1.63;;;32.20;47.30;;;;;;4902239;29;20495;-67
2021/05/09 09:14:08;;;;;;;1.43;1.33;;;32.10;48.20;;;;;;4903047;29;20458;-66
2021/05/09 09:16:35;;;;;;;1.50;1.40;;;32.30;46.50;;;;;;4902447;29;20466;-66
2021/05/09 09:19:08;;;;;;;1.53;1.50;;;32.50;46.20;;;;;;4902421;29;20466;-66
2021/05/09 09:21:35;;;;;;;1.60;1.30;;;32.30;46.60;;;;;;4902303;29;21089;-66
2021/05/09 09:24:05;;;;;;;1.57;1.47;;;32.30;45.50;;;;;;4902405;29;20464;-66
2021/05/09 09:26:34;;;;;;;1.50;1.40;;;32.10;45.10;;;;;;4902411;29;20458;-66
2021/05/09 09:29:02;;;;;;;1.30;1.30;;;32.30;46.30;;;;;;4902249;29;20549;-66
2021/05/09 09:31:40;;;;;;;1.90;1.80;;;32.10;45.50;;;;;;4903590;29;20474;-67
2021/05/09 09:34:06;;;;;;;2.00;1.43;;;32.50;46.50;;;;;;4902748;29;20442;-67
2021/05/09 09:36:33;;;;;;;1.77;1.40;;;32.70;46.10;;;;;;4903056;29;20878;-68
2021/05/09 09:38:59;;;;;;;1.67;1.57;;;33.20;45.40;;;;;;4902643;29;20518;-68
2021/05/09 09:41:26;;;;;;;2.97;1.50;;;33.60;45.10;;;;;;4902699;29;20573;-67
2021/05/09 09:44:02;;;;;;;1.60;1.60;;;33.90;43.30;;;;;;4903170;29;20458;-67
2021/05/09 09:46:30;;;;;;;1.80;1.70;;;34.30;43.50;;;;;;4903760;29;20461;-67
2021/05/09 09:48:56;;;;;;;1.70;1.70;;;34.40;44.30;;;;;;4902779;29;20881;-67
2021/05/09 09:51:23;;;;;;;1.73;1.63;;;35.00;43.20;;;;;;4902927;29;20484;-67
2021/05/09 09:53:49;;;;;;;2.03;1.83;;;35.10;41.60;;;;;;4902978;29;20465;-67
2021/05/09 09:56:16;;;;;;;1.40;1.40;;;35.10;42.10;;;;;;4903113;29;20486;-67
2021/05/09 09:58:45;;;;;;;2.73;1.50;;;34.80;42.20;;;;;;4902750;29;21009;-68
2021/05/09 10:01:16;;;;;;;1.83;1.40;;;34.80;42.90;;;;;;4903142;29;20855;-67
2021/05/09 10:03:43;;;;;;;1.63;1.60;;;35.00;42.60;;;;;;4904766;29;20446;-67
2021/05/09 10:06:09;;;;;;;1.30;1.30;;;34.90;42.60;;;;;;4915579;29;20446;-67
2021/05/09 10:08:36;;;;;;;2.20;1.97;;;35.30;42.50;;;;;;4907639;29;20462;-68
2021/05/09 10:11:04;;;;;;;2.70;1.70;;;35.70;42.20;;;;;;4907639;29;20875;-67
2021/05/09 10:13:31;;;;;;;1.70;1.63;;;36.00;41.40;;;;;;4911081;29;20458;-67
2021/05/09 10:15:58;;;;;;;1.50;1.50;;;36.10;42.20;;;;;;4906246;29;20461;-68
2021/05/09 10:18:27;;;;;;;2.30;2.10;;;36.10;39.60;;;;;;4902274;29;20490;-67
2021/05/09 10:20:53;;;;;;;1.90;1.80;;;35.70;40.20;;;;;;4901744;29;20486;-68
2021/05/09 10:23:20;;;;;;;1.80;1.70;;;35.70;39.70;;;;;;4901675;29;20478;-68
2021/05/09 10:25:48;;;;;;;1.93;1.83;;;35.80;40.20;;;;;;4902405;29;20461;-66
2021/05/09 10:28:17;;;;;;;2.00;1.90;;;36.10;40.50;;;;;;4901364;29;20874;-66
2021/05/09 10:30:48;;;;;;;1.93;1.43;;;36.20;39.70;;;;;;4903520;29;20541;-67
2021/05/09 10:33:44;;;;;;;1.77;1.53;;;36.10;39.40;;;;;;4907993;29;20443;-66
2021/05/09 10:36:31;;;;;;;2.27;1.70;;;35.70;38.60;;;;;;4901715;29;20540;-66
2021/05/09 10:39:17;;;;;;;1.50;1.40;;;35.60;40.20;;;;;;4901226;29;20457;-67
2021/05/09 10:42:16;;;;;;;1.70;1.30;;;34.80;41.30;;;;;;4901142;29;20490;-66
2021/05/09 10:44:45;;;;;;;2.07;1.97;;;34.70;41.10;;;;;;4901011;29;20446;-66
2021/05/09 10:47:17;;;;;;;1.93;1.50;;;35.20;40.60;;;;;;4901622;29;20945;-66
2021/05/09 10:50:24;;;;;;;3.90;1.70;;;35.40;41.70;;;;;;4901912;29;20453;-66
2021/05/09 10:52:52;;;;;;;2.30;1.47;;;36.00;38.40;;;;;;4900707;29;20442;-66
2021/05/09 10:55:40;;;;;;;3.67;1.57;;;36.50;37.70;;;;;;4901210;29;20539;-65
2021/05/09 10:58:08;;;;;;;1.40;1.10;;;36.10;36.40;;;;;;4901415;29;20475;-66
2021/05/09 11:01:17;;;;;;;1.50;1.40;;;36.40;36.30;;;;;;4902364;29;20257;-65
2021/05/09 11:03:49;;;;;;;5.00;1.80;;;36.40;38.00;;;;;;4891748;29;20466;-66
2021/05/09 11:06:18;;;;;;;1.93;1.77;;;36.40;36.80;;;;;;4903080;29;20457;-65
2021/05/09 11:09:00;;;;;;;2.33;2.13;;;36.30;35.90;;;;;;4902302;29;20806;-66
2021/05/09 11:11:55;;;;;;;2.87;2.67;;;36.10;36.30;;;;;;4900592;29;20531;-66
2021/05/09 11:14:21;;;;;;;1.70;1.60;;;35.70;35.30;;;;;;4900770;29;20458;-65
2021/05/09 11:17:01;;;;;;;1.83;1.73;;;35.70;37.70;;;;;;4901105;29;20473;-65
2021/05/09 11:19:39;;;;;;;1.80;1.70;;;35.40;36.10;;;;;;4902107;29;20453;-65
2021/05/09 11:22:08;;;;;;;2.00;2.00;;;34.80;36.20;;;;;;4902809;29;20952;-65
2021/05/09 11:24:36;;;;;;;1.60;1.50;;;34.70;39.80;;;;;;4908230;29;20561;-66
2021/05/09 11:27:07;;;;;;;1.97;1.90;;;34.50;37.60;;;;;;4901490;29;20538;-65
2021/05/09 11:29:34;;;;;;;3.30;3.00;;;34.40;37.70;;;;;;4901269;29;20541;-65
2021/05/09 11:32:07;;;;;;;5.00;1.70;;;34.10;38.30;;;;;;4902057;29;20484;-66
2021/05/09 11:34:33;;;;;;;2.30;1.40;;;33.70;38.10;;;;;;4902432;29;20921;-65
2021/05/09 11:36:59;;;;;;;1.00;1.00;;;33.30;37.70;;;;;;4909065;29;20438;-65
2021/05/09 11:39:38;;;;;;;2.20;1.40;;;33.00;38.40;;;;;;4909413;29;20450;-65
2021/05/09 11:42:08;;;;;;;1.73;1.57;;;32.80;41.40;;;;;;4901393;29;20490;-65
2021/05/09 11:44:37;;;;;;;1.70;1.60;;;32.50;39.20;;;;;;4902401;29;20514;-66
2021/05/09 11:47:05;;;;;;;1.77;1.67;;;32.30;39.50;;;;;;4902602;29;20461;-66
2021/05/09 11:49:34;;;;;;;1.53;1.40;;;32.10;41.10;;;;;;4902747;29;20458;-66
2021/05/09 11:52:01;;;;;;;1.20;1.20;;;31.70;38.40;;;;;;4901713;29;20481;-65
2021/05/09 11:54:29;;;;;;;2.73;1.57;;;31.60;39.40;;;;;;4901792;29;20462;-66
2021/05/09 11:56:58;;;;;;;1.13;1.13;;;31.60;39.70;;;;;;4901208;29;20458;-65
2021/05/09 11:59:32;;;;;;;1.33;1.33;;;31.60;40.50;;;;;;4901187;29;20588;-65
2021/05/09 12:01:58;;;;;;;1.50;1.40;;;31.70;40.40;;;;;;4900663;29;20497;-66
2021/05/09 12:04:29;;;;;;;7.30;1.30;;;31.60;39.90;;;;;;4901331;29;20450;-65
2021/05/09 12:06:57;;;;;;;2.37;2.17;;;31.50;40.40;;;;;;4901151;29;20453;-65
2021/05/09 12:09:23;;;;;;;1.30;1.20;;;31.50;40.30;;;;;;4900974;29;20458;-67
2021/05/09 12:11:50;;;;;;;1.40;1.30;;;31.50;40.50;;;;;;4900334;29;20481;-67
2021/05/09 12:14:17;;;;;;;1.13;1.13;;;31.70;40.00;;;;;;4901475;29;20459;-67
2021/05/09 12:16:44;;;;;;;1.63;1.40;;;31.90;39.70;;;;;;4902092;29;20465;-68
2021/05/09 12:19:10;;;;;;;1.70;1.60;;;31.90;38.20;;;;;;4902188;29;20454;-67
2021/05/09 12:21:36;;;;;;;2.30;2.20;;;31.90;39.20;;;;;;4900937;29;20486;-67
2021/05/09 12:24:04;;;;;;;3.93;2.37;;;31.90;40.60;;;;;;4899181;29;20462;-67
2021/05/09 12:26:30;;;;;;;2.60;2.40;;;31.90;39.00;;;;;;4900565;29;20462;-66
2021/05/09 12:29:14;;;;;;;4.40;2.00;;;31.90;39.50;;;;;;4900482;29;20522;-66
2021/05/09 12:31:41;;;;;;;1.20;1.20;;;32.00;41.20;;;;;;4899729;29;20478;-67
2021/05/09 12:34:07;;;;;;;2.60;2.20;;;32.00;39.80;;;;;;4899509;29;20454;-67
2021/05/09 12:36:34;;;;;;;1.60;1.50;;;32.00;38.60;;;;;;4900058;29;20454;-67
2021/05/09 12:39:03;;;;;;;1.73;1.67;;;32.00;40.10;;;;;;4900329;29;20449;-67
2021/05/09 12:41:29;;;;;;;1.87;1.77;;;31.80;39.10;;;;;;4899430;29;20877;-67
2021/05/09 12:43:56;;;;;;;1.97;1.87;;;31.60;39.30;;;;;;4899506;29;20526;-66
2021/05/09 12:46:38;;;;;;;1.50;1.40;;;31.70;39.80;;;;;;4899630;29;20458;-66
2021/05/09 12:49:13;;;;;;;1.97;1.50;;;31.60;38.90;;;;;;4898976;29;21115;-67
2021/05/09 12:51:50;;;;;;;1.60;1.07;;;31.70;38.50;;;;;;4943928;23;20512;-63
2021/05/09 12:54:33;;;;;;;1.30;1.30;;;31.90;39.10;;;;;;4974143;28;20465;-64
2021/05/09 12:57:20;;;;;;;1.20;1.10;;;31.90;38.90;;;;;;4974225;28;20485;-63
2021/05/09 12:59:48;;;;;;;1.20;1.20;;;31.50;38.90;;;;;;4974074;28;20450;-63
2021/05/09 13:02:14;;;;;;;1.87;1.60;;;31.40;41.00;;;;;;4973600;28;20478;-64
2021/05/09 13:04:47;;;;;;;2.13;1.67;;;31.30;39.40;;;;;;4974150;28;20454;-63
2021/05/09 13:07:15;;;;;;;1.37;1.37;;;31.40;39.70;;;;;;4974793;28;20498;-64
2021/05/09 13:09:43;;;;;;;1.90;1.80;;;31.50;39.60;;;;;;4977431;28;20540;-64
2021/05/09 13:12:10;;;;;;;2.00;1.83;;;31.50;39.20;;;;;;4977630;28;20476;-64
2021/05/09 13:14:45;;;;;;;1.27;1.20;;;31.50;38.90;;;;;;4978234;28;20799;-64
2021/05/09 13:17:12;;;;;;;1.57;1.47;;;31.40;39.80;;;;;;4977252;28;20453;-62
2021/05/09 13:19:39;;;;;;;1.20;1.20;;;31.50;40.90;;;;;;4977533;28;20496;-63
2021/05/09 13:22:06;;;;;;;1.27;1.17;;;31.50;40.30;;;;;;4976825;28;20482;-64
2021/05/09 13:24:33;;;;;;;2.10;1.40;;;31.50;40.30;;;;;;4977757;28;20454;-65
2021/05/09 13:26:59;;;;;;;1.57;1.57;;;31.60;40.70;;;;;;4977501;28;20471;-65
2021/05/09 13:29:26;;;;;;;2.50;1.60;;;31.80;40.40;;;;;;4976784;28;20960;-65
2021/05/09 13:31:52;;;;;;;3.80;1.43;;;31.90;40.60;;;;;;4976707;28;20992;-65
2021/05/09 13:34:18;;;;;;;2.40;1.30;;;31.70;40.10;;;;;;4977305;28;20459;-65
2021/05/09 13:36:45;;;;;;;4.33;1.93;;;31.50;40.80;;;;;;4991230;28;20958;-65
2021/05/09 13:39:12;;;;;;;3.83;2.00;;;31.50;40.60;;;;;;4997845;28;20450;-65
2021/05/09 13:41:39;;;;;;;1.77;1.70;;;31.50;40.30;;;;;;4978264;28;20489;-63
2021/05/09 13:44:06;;;;;;;1.47;1.47;;;31.40;40.20;;;;;;4977760;28;20466;-64
2021/05/09 13:46:32;;;;;;;2.33;2.10;;;31.50;40.10;;;;;;4977138;28;20454;-65
2021/05/09 13:48:59;;;;;;;1.93;1.30;;;31.70;41.50;;;;;;4977169;28;20463;-65
2021/05/09 13:51:25;;;;;;;1.80;1.23;;;31.90;40.40;;;;;;4976377;28;20992;-65
2021/05/09 13:53:51;;;;;;;1.00;1.00;;;31.80;40.60;;;;;;4976667;28;20497;-65
2021/05/09 13:56:19;;;;;;;1.83;1.30;;;32.00;42.00;;;;;;4976952;28;20450;-66
2021/05/09 13:58:49;;;;;;;1.47;1.30;;;32.00;40.40;;;;;;4976828;28;20509;-65
2021/05/09 14:01:15;;;;;;;1.27;1.23;;;32.20;42.30;;;;;;4976782;28;20530;-65
2021/05/09 14:03:41;;;;;;;1.30;1.30;;;32.30;41.00;;;;;;4976305;28;20435;-65
2021/05/09 14:06:07;;;;;;;8.47;7.87;;;32.40;40.10;;;;;;4976478;28;20489;-65
2021/05/09 14:08:34;;;;;;;4.10;3.87;;;32.50;38.20;;;;;;4976872;28;20454;-64
2021/05/09 14:11:00;;;;;;;1.23;1.10;;;32.50;40.30;;;;;;4976228;28;20929;-64
2021/05/09 14:13:29;;;;;;;3.27;3.03;;;32.60;38.10;;;;;;4976934;28;20458;-64
2021/05/09 14:15:55;;;;;;;3.10;2.90;;;32.40;37.40;;;;;;4976499;28;20529;-65
2021/05/09 14:18:21;;;;;;;3.33;3.10;;;32.30;38.10;;;;;;4976385;28;20829;-65
2021/05/09 14:20:47;;;;;;;1.30;1.20;;;32.10;37.60;;;;;;4975416;28;20521;-64
2021/05/09 14:23:14;;;;;;;9.67;8.93;;;32.20;41.30;;;;;;4976323;28;20478;-64
2021/05/09 14:25:40;;;;;;;1.80;1.70;;;32.40;41.70;;;;;;4976532;28;20461;-65
2021/05/09 14:28:06;;;;;;;2.13;1.40;;;32.40;38.30;;;;;;4976344;28;20458;-64
2021/05/09 14:30:33;;;;;;;2.00;1.90;;;32.30;38.60;;;;;;4976436;28;20517;-65
2021/05/09 14:33:00;;;;;;;1.20;1.10;;;32.10;39.00;;;;;;4976257;28;20504;-65
2021/05/09 14:35:27;;;;;;;1.40;1.30;;;31.90;37.20;;;;;;4976331;28;20605;-64
2021/05/09 14:37:55;;;;;;;2.10;1.80;;;32.00;39.50;;;;;;4976265;28;20465;-64
2021/05/09 14:40:21;;;;;;;2.13;1.60;;;31.90;40.00;;;;;;4976158;28;20465;-64
2021/05/09 14:42:48;;;;;;;1.40;1.40;;;32.00;41.10;;;;;;4975961;28;20500;-64
2021/05/09 14:45:14;;;;;;;3.40;1.37;;;31.90;41.50;;;;;;4976520;28;20459;-65
2021/05/09 14:47:42;;;;;;;1.17;1.10;;;31.60;41.60;;;;;;4975903;28;20454;-64
2021/05/09 14:50:09;;;;;;;3.53;1.40;;;31.50;42.70;;;;;;4976069;28;20554;-64
2021/05/09 14:52:35;;;;;;;3.57;1.47;;;31.30;44.40;;;;;;4975472;28;20481;-64
2021/05/09 14:55:02;;;;;;;1.20;1.20;;;31.10;43.60;;;;;;4976158;28;20734;-65
2021/05/09 14:57:29;;;;;;;1.10;1.10;;;31.00;43.40;;;;;;4975546;28;20817;-64
2021/05/09 14:59:55;;;;;;;1.33;1.33;;;30.70;43.00;;;;;;4975903;28;20486;-64
2021/05/09 15:02:22;;;;;;;4.70;1.43;;;30.70;41.60;;;;;;4975628;28;20486;-64
2021/05/09 15:04:49;;;;;;;1.57;1.37;;;30.70;40.10;;;;;;4975811;28;20508;-64
2021/05/09 15:07:15;;;;;;;1.67;1.57;;;30.90;40.00;;;;;;4975940;28;20492;-65
2021/05/09 15:09:42;;;;;;;1.70;1.60;;;31.00;42.00;;;;;;4975649;28;20512;-64
2021/05/09 15:12:08;;;;;;;1.67;1.57;;;31.00;43.90;;;;;;4976971;28;20474;-64
2021/05/09 15:14:35;;;;;;;1.37;1.27;;;31.00;43.40;;;;;;4981364;28;20457;-64
2021/05/09 15:17:01;;;;;;;1.20;1.03;;;31.00;44.50;;;;;;4981009;28;20508;-65
2021/05/09 15:19:28;;;;;;;1.53;1.43;;;31.00;43.80;;;;;;4981437;28;20455;-64
2021/05/09 15:21:55;;;;;;;1.30;1.20;;;30.70;41.60;;;;;;4980608;28;20487;-64
2021/05/09 15:24:21;;;;;;;4.53;1.70;;;30.60;40.50;;;;;;4980499;28;20525;-64
2021/05/09 15:26:47;;;;;;;1.23;1.23;;;30.50;41.10;;;;;;4977830;28;20546;-64
2021/05/09 15:29:26;;;;;;;1.50;1.40;;;30.40;39.70;;;;;;4976148;28;20459;-64
2021/05/09 15:31:54;;;;;;;1.27;1.27;;;30.40;40.40;;;;;;4975247;28;20825;-65
2021/05/09 15:34:21;;;;;;;1.43;1.33;;;30.40;43.60;;;;;;4975564;28;20458;-64
2021/05/09 15:36:47;;;;;;;1.20;1.20;;;30.40;42.80;;;;;;4975106;28;20928;-65
2021/05/09 15:39:14;;;;;;;1.00;1.00;;;30.60;44.00;;;;;;4975178;28;20950;-65
2021/05/09 15:41:41;;;;;;;1.20;1.20;;;30.60;42.10;;;;;;4974984;28;20850;-64
2021/05/09 15:44:07;;;;;;;4.83;2.53;;;30.60;40.90;;;;;;4975221;28;20465;-65
2021/05/09 15:46:34;;;;;;;2.60;1.37;;;30.70;40.80;;;;;;4974753;28;20941;-65
2021/05/09 15:49:00;;;;;;;2.60;2.43;;;30.80;41.70;;;;;;4975177;28;20513;-65
2021/05/09 15:51:26;;;;;;;2.10;2.00;;;30.60;41.50;;;;;;4974709;28;21075;-65
2021/05/09 15:53:52;;;;;;;1.90;1.80;;;30.50;40.30;;;;;;4974819;28;20458;-65
2021/05/09 15:56:19;;;;;;;1.20;1.07;;;30.50;40.40;;;;;;4975186;28;20455;-64
2021/05/09 15:58:47;;;;;;;1.60;1.50;;;30.60;39.80;;;;;;4974929;28;20458;-66
2021/05/09 16:01:13;;;;;;;1.50;1.50;;;30.50;40.20;;;;;;4974725;28;20478;-65
2021/05/09 16:03:39;;;;;;;1.60;1.50;;;30.50;40.30;;;;;;4974865;28;20457;-65
2021/05/09 16:06:05;;;;;;;1.47;1.27;;;30.50;40.40;;;;;;4974819;28;20458;-65
2021/05/09 16:08:32;;;;;;;1.73;1.63;;;30.40;39.40;;;;;;4974952;28;20458;-65
2021/05/09 16:10:58;;;;;;;2.00;1.90;;;30.50;39.70;;;;;;4974685;28;20451;-64
2021/05/09 16:13:26;;;;;;;2.47;2.20;;;30.60;41.10;;;;;;4974932;28;20465;-65
2021/05/09 16:15:52;;;;;;;1.80;1.70;;;30.70;41.10;;;;;;4974725;28;20539;-65
2021/05/09 16:18:18;;;;;;;1.70;1.60;;;30.70;41.80;;;;;;4974637;28;20906;-64
2021/05/09 16:20:44;;;;;;;2.10;2.00;;;30.50;43.80;;;;;;4974669;28;20461;-65
2021/05/09 16:23:11;;;;;;;2.43;2.13;;;30.10;45.90;;;;;;4974780;28;20474;-64
2021/05/09 16:25:37;;;;;;;6.10;2.13;;;30.00;47.20;;;;;;4974656;28;20513;-65
2021/05/09 16:28:03;;;;;;;8.40;2.10;;;30.00;48.60;;;;;;4974537;28;20466;-64
2021/05/09 16:30:31;;;;;;;1.80;1.70;;;29.90;48.10;;;;;;4974668;28;20503;-65
2021/05/09 16:32:57;;;;;;;2.00;1.90;;;29.90;47.60;;;;;;4974811;28;20546;-64
2021/05/09 16:35:23;;;;;;;1.90;1.80;;;29.90;47.70;;;;;;4975274;28;20553;-64
2021/05/09 16:37:49;;;;;;;2.30;2.10;;;29.80;47.10;;;;;;4976435;28;20458;-64
2021/05/09 16:40:16;;;;;;;2.73;2.10;;;29.70;47.20;;;;;;4975558;28;20542;-65
2021/05/09 16:42:42;;;;;;;2.43;2.33;;;29.60;47.70;;;;;;4977072;28;20858;-63
2021/05/09 16:45:09;;;;;;;3.00;2.60;;;29.50;49.70;;;;;;4980598;28;20455;-65
2021/05/09 16:47:37;;;;;;;2.30;2.00;;;29.40;47.90;;;;;;4980664;28;20545;-64
2021/05/09 16:50:04;;;;;;;2.03;1.80;;;29.40;47.30;;;;;;4979148;28;20462;-66
2021/05/09 16:52:33;;;;;;;2.10;2.00;;;29.40;47.60;;;;;;4978834;28;20483;-64